createdAt,value
2019-04-06T00:02:02.051Z,99314.20
2019-04-06T00:05:06.604Z,99311.31
2019-04-06T00:08:09.921Z,99308.98
2019-04-06T00:11:13.263Z,99317.33
2019-04-06T00:14:16.597Z,99317.72
2019-04-06T00:17:19.940Z,99313.63
2019-04-06T00:20:23.213Z,99313.34
2019-04-06T00:23:26.539Z,99318.95
2019-04-06T00:26:29.959Z,99326.34
2019-04-06T00:29:33.234Z,99320.96
2019-04-06T00:32:38.206Z,99324.86
2019-04-06T00:35:41.573Z,99327.13
2019-04-06T00:38:44.887Z,99335.39
2019-04-06T00:41:48.216Z,99330.14
2019-04-06T00:44:51.521Z,99328.55
2019-04-06T00:47:54.837Z,99323.20
2019-04-06T00:50:58.216Z,99329.80
2019-04-06T00:54:01.532Z,99322.94
2019-04-06T00:57:04.850Z,99327.49
2019-04-06T01:00:08.197Z,99329.09
2019-04-06T01:03:11.504Z,99330.39
2019-04-06T01:06:14.816Z,99331.01
2019-04-06T01:09:18.285Z,99335.66
2019-04-06T01:12:21.596Z,99324.97
2019-04-06T01:15:24.917Z,99323.75
2019-04-06T01:18:28.234Z,99314.14
2019-04-06T01:21:31.531Z,99319.31
2019-04-06T01:24:34.844Z,99331.12
2019-04-06T01:27:38.182Z,99336.42
2019-04-06T01:30:41.480Z,99330.55
2019-04-06T01:33:44.824Z,99322.71
2019-04-06T01:36:48.116Z,99324.83
2019-04-06T01:39:51.462Z,99319.66
2019-04-06T01:42:54.765Z,99327.67
2019-04-06T01:45:58.071Z,99325.55
2019-04-06T01:49:01.399Z,99328.00
2019-04-06T01:52:04.716Z,99331.25
2019-04-06T01:55:08.008Z,99328.31
2019-04-06T01:58:11.429Z,99319.14
2019-04-06T02:01:25.404Z,99318.61
2019-04-06T02:04:28.801Z,99320.09
2019-04-06T02:07:32.161Z,99323.27
2019-04-06T02:10:35.454Z,99330.58
2019-04-06T02:13:38.864Z,99322.73
2019-04-06T02:16:42.197Z,99323.77
2019-04-06T02:19:45.508Z,99331.29
2019-04-06T02:22:48.807Z,99323.13
2019-04-06T02:25:52.115Z,99329.31
2019-04-06T02:28:55.463Z,99330.33
2019-04-06T02:32:16.716Z,99329.42
2019-04-06T02:35:37.804Z,99339.66
2019-04-06T02:38:45.274Z,99339.75
2019-04-06T02:41:50.167Z,99343.27
2019-04-06T02:44:53.496Z,99346.69
2019-04-06T02:47:56.881Z,99345.86
2019-04-06T02:51:00.180Z,99351.45
2019-04-06T02:54:03.557Z,99350.48
2019-04-06T02:57:06.819Z,99355.37
2019-04-06T03:00:10.626Z,99348.67
2019-04-06T03:03:13.938Z,99344.91
2019-04-06T03:06:17.281Z,99347.33
2019-04-06T03:09:20.582Z,99350.56
2019-04-06T03:12:23.913Z,99340.37
2019-04-06T03:15:27.205Z,99343.59
2019-04-06T03:18:30.545Z,99344.56
2019-04-06T03:21:33.901Z,99347.06
2019-04-06T03:24:37.260Z,99345.72
2019-04-06T03:27:40.724Z,99342.19
2019-04-06T03:30:44.494Z,99339.15
2019-04-06T03:33:47.958Z,99333.88
2019-04-06T03:36:51.290Z,99341.25
2019-04-06T03:39:54.740Z,99343.06
2019-04-06T03:42:58.057Z,99351.43
2019-04-06T03:46:01.386Z,99347.53
2019-04-06T03:49:04.734Z,99347.30
2019-04-06T03:52:08.078Z,99350.08
2019-04-06T03:55:11.480Z,99347.83
2019-04-06T03:58:14.985Z,99346.25
2019-04-06T04:01:18.339Z,99345.56
2019-04-06T04:04:25.601Z,99336.13
2019-04-06T04:07:28.958Z,99336.30
2019-04-06T04:10:36.265Z,99337.92
2019-04-06T04:13:39.762Z,99339.50
2019-04-06T04:16:43.083Z,99335.41
2019-04-06T04:19:46.462Z,99336.33
2019-04-06T04:22:49.824Z,99337.17
2019-04-06T04:25:53.162Z,99339.20
2019-04-06T04:28:56.483Z,99344.00
2019-04-06T04:31:59.809Z,99337.72
2019-04-06T04:35:03.151Z,99330.33
2019-04-06T04:38:06.479Z,99340.05
2019-04-06T04:41:09.904Z,99347.20
2019-04-06T04:44:13.165Z,99345.98
2019-04-06T04:47:16.546Z,99348.16
2019-04-06T04:50:20.271Z,99353.50
2019-04-06T04:53:23.684Z,99360.93
2019-04-06T04:56:27.014Z,99360.97
2019-04-06T04:59:30.413Z,99364.88
2019-04-06T05:02:33.794Z,99360.28
2019-04-06T05:05:37.217Z,99364.56
2019-04-06T05:08:40.534Z,99365.23
2019-04-06T05:11:44.000Z,99371.72
2019-04-06T05:15:04.841Z,99374.91
2019-04-06T05:18:08.200Z,99380.50
2019-04-06T05:21:11.754Z,99381.81
2019-04-06T05:24:15.070Z,99388.27
2019-04-06T05:27:18.438Z,99386.46
2019-04-06T05:30:21.772Z,99390.59
2019-04-06T05:33:25.094Z,99394.25
2019-04-06T05:36:28.533Z,99394.06
2019-04-06T05:39:31.827Z,99399.77
2019-04-06T05:42:35.132Z,99406.00
2019-04-06T05:45:38.433Z,99398.36
2019-04-06T05:48:41.940Z,99396.81
2019-04-06T05:51:45.252Z,99403.45
2019-04-06T05:54:48.750Z,99410.11
2019-04-06T05:58:02.915Z,99406.47
2019-04-06T06:00:57.108Z,99403.52
2019-04-06T06:04:00.525Z,99402.69
2019-04-06T06:07:03.858Z,99409.66
2019-04-06T06:10:07.632Z,99418.38
2019-04-06T06:13:11.079Z,99421.73
2019-04-06T06:16:14.487Z,99419.66
2019-04-06T06:19:17.840Z,99424.29
2019-04-06T06:22:21.316Z,99424.36
2019-04-06T06:25:24.645Z,99428.11
2019-04-06T06:28:28.026Z,99423.01
2019-04-06T06:31:31.568Z,99423.03
2019-04-06T06:34:34.962Z,99434.94
2019-04-06T06:37:38.361Z,99439.19
2019-04-06T06:40:41.697Z,99440.21
2019-04-06T06:43:45.524Z,99443.73
2019-04-06T06:46:48.953Z,99443.02
2019-04-06T06:49:52.334Z,99432.38
2019-04-06T06:52:55.698Z,99435.35
2019-04-06T06:55:59.000Z,99447.21
2019-04-06T06:59:02.312Z,99448.81
2019-04-06T07:02:05.848Z,99444.28
2019-04-06T07:05:09.168Z,99439.72
2019-04-06T07:08:12.552Z,99443.95
2019-04-06T07:11:15.936Z,99442.86
2019-04-06T07:14:19.410Z,99441.69
2019-04-06T07:17:22.763Z,99439.12
2019-04-06T07:20:26.060Z,99448.62
2019-04-06T07:23:29.402Z,99437.29
2019-04-06T07:26:32.708Z,99447.09
2019-04-06T07:29:36.051Z,99444.98
2019-04-06T07:32:39.401Z,99439.39
2019-04-06T07:35:42.724Z,99446.54
2019-04-06T07:38:47.846Z,99444.53
2019-04-06T07:41:51.187Z,99442.84
2019-04-06T07:44:54.540Z,99448.28
2019-04-06T07:47:57.864Z,99448.09
2019-04-06T07:51:01.311Z,99452.30
2019-04-06T07:54:04.725Z,99448.45
2019-04-06T07:57:08.057Z,99451.47
2019-04-06T08:00:11.387Z,99448.66
2019-04-06T08:03:14.812Z,99448.56
2019-04-06T08:06:18.349Z,99447.67
2019-04-06T08:09:21.757Z,99452.58
2019-04-06T08:12:25.035Z,99450.24
2019-04-06T08:15:28.389Z,99457.47
2019-04-06T08:18:31.783Z,99449.66
2019-04-06T08:21:35.132Z,99449.79
2019-04-06T08:24:38.477Z,99451.23
2019-04-06T08:27:41.985Z,99443.25
2019-04-06T08:30:48.816Z,99443.72
2019-04-06T08:33:52.478Z,99447.44
2019-04-06T08:36:56.356Z,99450.23
2019-04-06T08:39:59.890Z,99442.27
2019-04-06T08:43:03.156Z,99435.80
2019-04-06T08:46:06.882Z,99434.30
2019-04-06T08:49:10.188Z,99446.05
2019-04-06T08:52:13.624Z,99438.85
2019-04-06T08:55:16.993Z,99433.64
2019-04-06T08:58:20.425Z,99430.69
2019-04-06T09:01:23.753Z,99428.14
2019-04-06T09:04:27.321Z,99425.02
2019-04-06T09:07:30.653Z,99422.28
2019-04-06T09:10:34.319Z,99426.78
2019-04-06T09:13:40.019Z,99418.93
2019-04-06T09:16:42.692Z,99417.95
2019-04-06T09:19:46.014Z,99414.03
2019-04-06T09:22:49.480Z,99416.53
2019-04-06T09:25:52.899Z,99415.81
2019-04-06T09:28:56.196Z,99410.72
2019-04-06T09:31:59.992Z,99406.29
2019-04-06T09:35:03.438Z,99404.39
2019-04-06T09:38:08.396Z,99395.33
2019-04-06T09:41:11.782Z,99397.56
2019-04-06T09:44:22.906Z,99393.61
2019-04-06T09:47:31.503Z,99391.15
2019-04-06T09:50:52.869Z,99388.30
2019-04-06T09:54:07.614Z,99386.78
2019-04-06T09:57:12.739Z,99377.88
2019-04-06T10:00:23.397Z,99368.51
2019-04-06T10:03:31.178Z,99363.41
2019-04-06T10:06:38.927Z,99364.73
2019-04-06T10:09:59.953Z,99354.75
2019-04-06T10:13:11.015Z,99363.12
2019-04-06T10:16:16.151Z,99356.34
2019-04-06T10:19:30.453Z,99355.59
2019-04-06T10:22:35.423Z,99349.91
2019-04-06T10:25:56.474Z,99349.80
2019-04-06T10:29:16.268Z,99351.55
2019-04-06T10:32:27.140Z,99347.61
2019-04-06T10:35:32.235Z,99335.70
2019-04-06T10:38:43.084Z,99338.92
2019-04-06T10:42:06.323Z,99334.59
2019-04-06T10:45:11.388Z,99322.98
2019-04-06T10:48:32.888Z,99316.13
2019-04-06T10:51:46.818Z,99324.28
2019-04-06T10:55:08.221Z,99316.22
2019-04-06T10:58:25.199Z,99312.91
2019-04-06T11:01:42.197Z,99313.16
2019-04-06T11:04:59.362Z,99308.02
2019-04-06T11:08:06.360Z,99298.83
2019-04-06T11:14:53.747Z,99291.86
2019-04-06T11:18:01.592Z,99276.92
2019-04-06T11:21:09.352Z,99267.77
2019-04-06T11:24:20.323Z,99277.30
2019-04-06T11:27:34.481Z,99259.44
2019-04-06T11:30:48.260Z,99258.53
2019-04-06T11:33:53.515Z,99257.72
2019-04-06T11:37:18.514Z,99259.46
2019-04-06T11:40:26.228Z,99256.45
2019-04-06T11:43:49.499Z,99250.72
2019-04-06T11:47:12.830Z,99252.53
2019-04-06T11:50:33.031Z,99240.88
2019-04-06T11:53:44.071Z,99247.91
2019-04-06T11:57:06.827Z,99245.12
2019-04-06T12:00:24.500Z,99239.87
2019-04-06T12:03:33.358Z,99234.97
2019-04-06T12:06:56.198Z,99225.58
2019-04-06T12:10:06.913Z,99235.20
2019-04-06T12:13:11.994Z,99229.63
2019-04-06T12:16:20.006Z,99230.28
2019-04-06T12:19:27.754Z,99230.93
2019-04-06T12:22:50.080Z,99230.00
2019-04-06T12:26:03.123Z,99223.80
2019-04-06T12:29:08.181Z,99215.85
2019-04-06T12:32:19.371Z,99205.91
2019-04-06T12:35:41.176Z,99206.81
2019-04-06T12:38:58.367Z,99198.38
2019-04-06T12:42:09.259Z,99189.48
2019-04-06T12:45:26.308Z,99187.36
2019-04-06T12:48:36.821Z,99182.73
2019-04-06T12:51:44.614Z,99183.00
2019-04-06T12:54:52.105Z,99182.02
2019-04-06T12:57:57.223Z,99183.13
2019-04-06T13:01:17.022Z,99179.92
2019-04-06T13:04:24.776Z,99178.62
2019-04-06T13:07:29.869Z,99173.52
2019-04-06T13:10:40.849Z,99164.36
2019-04-06T13:13:48.553Z,99165.93
2019-04-06T13:16:59.213Z,99163.30
2019-04-06T13:20:19.653Z,99169.55
2019-04-06T13:23:27.391Z,99151.62
2019-04-06T13:26:38.560Z,99151.40
2019-04-06T13:29:49.098Z,99138.50
2019-04-06T13:32:54.141Z,99138.99
2019-04-06T13:35:59.154Z,99126.47
2019-04-06T13:39:07.215Z,99128.27
2019-04-06T13:42:14.716Z,99119.32
2019-04-06T13:45:35.030Z,99126.45
2019-04-06T13:48:42.717Z,99129.22
2019-04-06T13:51:50.582Z,99124.84
2019-04-06T13:55:07.544Z,99119.70
2019-04-06T13:58:15.750Z,99116.53
2019-04-06T14:01:20.865Z,99113.05
2019-04-06T14:04:25.882Z,99111.97
2019-04-06T14:07:33.868Z,99129.32
2019-04-06T14:10:53.637Z,99124.36
2019-04-06T14:14:14.908Z,99112.08
2019-04-06T14:17:29.095Z,99099.98
2019-04-06T14:20:36.815Z,99100.33
2019-04-06T14:23:44.282Z,99120.86
2019-04-06T14:27:07.650Z,99112.66
2019-04-06T14:30:12.653Z,99107.91
2019-04-06T14:33:33.937Z,99111.97
2019-04-06T14:36:44.435Z,99099.40
2019-04-06T14:39:49.584Z,99100.70
2019-04-06T14:43:06.851Z,99101.03
2019-04-06T14:46:14.854Z,99109.53
2019-04-06T14:49:29.617Z,99092.70
2019-04-06T14:52:35.774Z,99090.70
2019-04-06T14:55:41.210Z,99103.05
2019-04-06T14:58:58.430Z,99098.90
2019-04-06T15:02:19.804Z,99093.97
2019-04-06T15:05:24.833Z,99088.97
2019-04-06T15:08:38.837Z,99082.99
2019-04-06T15:11:43.920Z,99085.17
2019-04-06T15:14:58.364Z,99091.39
2019-04-06T15:18:03.809Z,99083.88
2019-04-06T15:21:25.562Z,99085.95
2019-04-06T15:24:33.055Z,99092.55
2019-04-06T15:27:38.133Z,99095.98
2019-04-06T15:30:43.152Z,99087.41
2019-04-06T15:33:54.151Z,99093.16
2019-04-06T15:37:06.916Z,99086.09
2019-04-06T15:40:11.496Z,99080.56
2019-04-06T15:43:18.796Z,99079.50
2019-04-06T15:46:23.310Z,99079.84
2019-04-06T15:49:28.353Z,99084.48
2019-04-06T15:52:45.739Z,99077.50
2019-04-06T15:55:51.048Z,99080.63
2019-04-06T15:59:02.071Z,99081.00
2019-04-06T16:02:10.037Z,99080.16
2019-04-06T16:05:21.430Z,99081.61
2019-04-06T16:08:26.528Z,99072.77
2019-04-06T16:11:42.141Z,99077.88
2019-04-06T16:15:02.327Z,99087.28
2019-04-06T16:18:07.374Z,99080.22
2019-04-06T16:21:18.552Z,99083.05
2019-04-06T16:24:35.540Z,99082.78
2019-04-06T16:27:43.725Z,99095.58
2019-04-06T16:31:04.146Z,99092.58
2019-04-06T16:34:18.698Z,99086.59
2019-04-06T16:37:26.863Z,99090.98
2019-04-06T16:40:50.232Z,99088.78
2019-04-06T16:43:55.264Z,99091.28
2019-04-06T16:47:06.040Z,99094.91
2019-04-06T16:50:16.724Z,99095.55
2019-04-06T16:53:37.735Z,99097.08
2019-04-06T16:56:43.013Z,99095.98
2019-04-06T16:59:54.046Z,99098.28
2019-04-06T17:02:59.088Z,99095.23
2019-04-06T17:06:04.238Z,99096.70
2019-04-06T17:09:14.664Z,99103.61
2019-04-06T17:12:25.682Z,99101.94
2019-04-06T17:15:40.089Z,99103.98
2019-04-06T17:19:01.548Z,99095.70
2019-04-06T17:22:06.842Z,99100.42
2019-04-06T17:25:12.270Z,99098.31
2019-04-06T17:28:33.966Z,99102.52
2019-04-06T17:31:39.393Z,99096.50
2019-04-06T17:34:53.430Z,99107.05
2019-04-06T17:38:08.929Z,99101.54
2019-04-06T17:41:29.249Z,99110.38
2019-04-06T17:44:34.870Z,99111.22
2019-04-06T17:47:42.973Z,99112.88
2019-04-06T17:50:48.010Z,99117.32
2019-04-06T17:54:09.608Z,99117.64
2019-04-06T17:57:26.528Z,99123.13
2019-04-06T18:00:37.120Z,99129.80
2019-04-06T18:03:59.704Z,99131.48
2019-04-06T18:07:06.435Z,99125.69
2019-04-06T18:10:13.903Z,99138.08
2019-04-06T18:13:21.722Z,99138.36
2019-04-06T18:16:26.933Z,99146.09
2019-04-06T18:19:30.347Z,99141.66
2019-04-06T18:22:33.746Z,99152.69
2019-04-06T18:25:37.753Z,99152.67
2019-04-06T18:28:41.154Z,99157.38
2019-04-06T18:31:49.139Z,99165.90
2019-04-06T18:34:52.610Z,99172.45
2019-04-06T18:37:57.638Z,99170.22
2019-04-06T18:41:01.430Z,99179.03
2019-04-06T18:44:04.921Z,99180.38
2019-04-06T18:47:08.601Z,99182.84
2019-04-06T18:50:12.878Z,99186.37
2019-04-06T18:53:16.354Z,99185.55
2019-04-06T18:56:20.041Z,99185.22
2019-04-06T18:59:23.807Z,99180.23
2019-04-06T19:02:27.202Z,99183.53
2019-04-06T19:05:30.692Z,99181.55
2019-04-06T19:08:34.306Z,99179.82
2019-04-06T19:11:38.130Z,99193.19
2019-04-06T19:14:41.609Z,99193.69
2019-04-06T19:17:45.161Z,99196.67
2019-04-06T19:20:48.565Z,99194.19
2019-04-06T19:23:51.983Z,99194.67
2019-04-06T19:26:55.410Z,99193.07
2019-04-06T19:29:58.786Z,99198.53
2019-04-06T19:33:02.210Z,99203.73
2019-04-06T19:36:05.594Z,99201.58
2019-04-06T19:39:12.160Z,99202.06
2019-04-06T19:42:15.593Z,99206.13
2019-04-06T19:45:19.572Z,99201.67
2019-04-06T19:48:23.425Z,99214.47
2019-04-06T19:51:27.187Z,99210.49
2019-04-06T19:54:30.596Z,99204.70
2019-04-06T19:57:35.104Z,99211.48
2019-04-06T20:00:39.159Z,99204.53
2019-04-06T20:03:42.481Z,99211.39
2019-04-06T20:06:46.630Z,99203.63
2019-04-06T20:09:50.101Z,99204.66
2019-04-06T20:12:53.630Z,99204.91
2019-04-06T20:15:57.275Z,99203.36
2019-04-06T20:19:00.607Z,99200.83
2019-04-06T20:22:04.307Z,99198.33
2019-04-06T20:25:08.356Z,99206.44
2019-04-06T20:28:12.071Z,99201.72
2019-04-06T20:31:18.499Z,99198.17
2019-04-06T20:34:21.963Z,99204.92
2019-04-06T20:37:25.305Z,99198.25
2019-04-06T20:40:28.779Z,99206.31
2019-04-06T20:43:32.182Z,99205.02
2019-04-06T20:46:35.487Z,99206.92
2019-04-06T20:49:38.812Z,99207.38
2019-04-06T20:52:42.512Z,99201.83
2019-04-06T20:55:46.289Z,99209.11
2019-04-06T20:58:49.619Z,99208.44
2019-04-06T21:01:53.167Z,99211.66
2019-04-06T21:04:56.525Z,99216.75
2019-04-06T21:08:02.348Z,99211.89
2019-04-06T21:11:05.611Z,99212.58
2019-04-06T21:14:09.176Z,99213.63
2019-04-06T21:17:12.556Z,99185.41
2019-04-06T21:20:16.236Z,99212.00
2019-04-06T21:23:19.830Z,99217.27
2019-04-06T21:26:23.703Z,99224.27
2019-04-06T21:29:27.044Z,99222.84
2019-04-06T21:32:31.016Z,99220.89
2019-04-06T21:35:43.851Z,99223.63
2019-04-06T21:38:47.180Z,99218.65
2019-04-06T21:41:50.798Z,99219.77
2019-04-06T21:44:54.516Z,99220.66
2019-04-06T21:48:00.486Z,99229.57
2019-04-06T21:51:04.439Z,99228.63
2019-04-06T21:54:08.046Z,99229.84
2019-04-06T21:57:11.475Z,99229.91
2019-04-06T22:00:16.680Z,99230.70
2019-04-06T22:03:20.702Z,99223.06
2019-04-06T22:06:25.699Z,99223.27
2019-04-06T22:09:29.753Z,99222.76
2019-04-06T22:12:35.816Z,99226.03
2019-04-06T22:15:39.155Z,99226.19
2019-04-06T22:18:43.033Z,99226.33
2019-04-06T22:21:47.344Z,99224.08
2019-04-06T22:24:51.804Z,99231.05
2019-04-06T22:27:57.161Z,99227.02
2019-04-06T22:31:06.576Z,99229.04
2019-04-06T22:34:10.789Z,99225.66
2019-04-06T22:37:14.280Z,99227.50
2019-04-06T22:40:18.128Z,99227.98
2019-04-06T22:43:21.832Z,99231.26
2019-04-06T22:46:25.410Z,99222.34
2019-04-06T22:49:29.359Z,99231.02
2019-04-06T22:52:33.144Z,99228.84
2019-04-06T22:55:36.881Z,99226.59
2019-04-06T22:58:40.357Z,99230.80
2019-04-06T23:01:43.774Z,99227.11
2019-04-06T23:04:52.393Z,99237.02
2019-04-06T23:07:56.134Z,99238.16
2019-04-06T23:10:59.768Z,99241.35
2019-04-06T23:14:03.158Z,99232.03
2019-04-06T23:17:06.472Z,99229.42
2019-04-06T23:20:09.767Z,99223.84
2019-04-06T23:23:13.083Z,99221.82
2019-04-06T23:26:16.951Z,99221.08
2019-04-06T23:29:20.368Z,99227.58
2019-04-06T23:32:23.908Z,99225.09
2019-04-06T23:35:27.332Z,99227.38
2019-04-06T23:38:30.648Z,99232.96
2019-04-06T23:41:34.658Z,99231.48
2019-04-06T23:44:38.035Z,99226.17
2019-04-06T23:47:41.374Z,99229.63
2019-04-06T23:50:45.138Z,99227.95
2019-04-06T23:53:48.983Z,99224.56
2019-04-06T23:56:52.983Z,99224.88
2019-04-06T23:59:56.400Z,99230.50
